createdAt,value
2023-02-11T00:00:43.762Z,7.83
2023-02-11T00:06:01.820Z,5.88
2023-02-11T00:11:04.941Z,5.40
2023-02-11T00:16:09.679Z,6.73
2023-02-11T00:21:18.349Z,7.44
2023-02-11T00:26:24.688Z,7.91
2023-02-11T00:31:28.165Z,8.03
2023-02-11T00:36:31.485Z,6.50
2023-02-11T00:41:34.680Z,6.77
2023-02-11T00:46:37.395Z,7.72
2023-02-11T00:51:40.206Z,8.07
2023-02-11T00:56:42.829Z,7.18
2023-02-11T01:01:45.490Z,5.55
2023-02-11T01:06:48.145Z,6.14
2023-02-11T01:11:50.993Z,6.91
2023-02-11T01:16:53.612Z,7.48
2023-02-11T01:21:56.205Z,7.90
2023-02-11T01:26:58.954Z,8.14
2023-02-11T01:32:01.674Z,7.69
2023-02-11T01:37:04.413Z,6.18
2023-02-11T01:42:07.039Z,6.80
2023-02-11T01:47:09.828Z,7.26
2023-02-11T01:52:22.092Z,7.57
2023-02-11T01:57:28.896Z,7.83
2023-02-11T02:02:39.618Z,8.07
2023-02-11T02:07:49.667Z,6.25
2023-02-11T02:12:52.428Z,6.46
2023-02-11T02:18:04.294Z,7.49
2023-02-11T02:23:43.303Z,7.55
2023-02-11T02:29:01.752Z,7.95
2023-02-11T02:34:14.043Z,7.59
2023-02-11T02:39:26.206Z,5.81
2023-02-11T02:44:29.760Z,6.43
2023-02-11T02:49:32.338Z,7.01
2023-02-11T02:54:53.563Z,7.39
2023-02-11T03:00:11.403Z,7.63
2023-02-11T03:05:19.622Z,7.82
2023-02-11T03:10:27.300Z,6.36
2023-02-11T03:15:34.860Z,5.97
2023-02-11T03:20:41.512Z,7.04
2023-02-11T03:26:23.154Z,7.54
2023-02-11T03:31:47.733Z,7.19
2023-02-11T03:37:01.386Z,5.80
2023-02-11T03:42:07.413Z,6.90
2023-02-11T03:47:12.610Z,7.63
2023-02-11T03:52:18.034Z,6.21
2023-02-11T03:57:20.664Z,5.57
2023-02-11T04:02:32.494Z,6.70
2023-02-11T04:07:35.328Z,7.52
2023-02-11T04:12:37.939Z,7.34
2023-02-11T04:17:41.648Z,5.59
2023-02-11T04:22:44.256Z,5.73
2023-02-11T04:27:46.915Z,6.82
2023-02-11T04:32:49.550Z,7.40
2023-02-11T04:37:52.816Z,7.66
2023-02-11T04:42:55.346Z,7.15
2023-02-11T04:47:57.921Z,5.73
2023-02-11T04:53:00.470Z,6.54
2023-02-11T04:58:03.055Z,7.36
2023-02-11T05:03:08.089Z,7.71
2023-02-11T05:08:11.777Z,6.08
2023-02-11T05:13:14.530Z,6.31
2023-02-11T05:18:17.132Z,7.22
2023-02-11T05:23:19.678Z,7.68
2023-02-11T05:28:22.308Z,7.54
2023-02-11T05:33:25.636Z,5.80
2023-02-11T05:38:28.557Z,6.03
2023-02-11T05:43:31.688Z,6.64
2023-02-11T05:48:34.835Z,6.74
2023-02-11T05:53:37.408Z,6.88
2023-02-11T05:58:40.699Z,7.08
2023-02-11T06:03:43.258Z,7.03
2023-02-11T06:08:45.857Z,6.99
2023-02-11T06:13:48.492Z,6.94
2023-02-11T06:18:51.138Z,6.99
2023-02-11T06:23:53.725Z,6.88
2023-02-11T06:28:56.518Z,6.76
2023-02-11T06:33:59.278Z,6.80
2023-02-11T06:39:02.967Z,6.88
2023-02-11T06:44:06.102Z,6.97
2023-02-11T06:49:08.816Z,6.99
2023-02-11T06:54:13.820Z,7.02
2023-02-11T06:59:18.102Z,6.95
2023-02-11T07:04:20.750Z,6.99
2023-02-11T07:09:23.607Z,7.11
2023-02-11T07:14:26.251Z,7.13
2023-02-11T07:19:28.915Z,7.15
2023-02-11T07:24:32.009Z,7.11
2023-02-11T07:29:34.997Z,7.24
2023-02-11T07:34:37.926Z,7.49
2023-02-11T07:39:40.671Z,7.69
2023-02-11T07:44:47.985Z,7.72
2023-02-11T07:49:53.961Z,7.75
2023-02-11T07:54:59.565Z,7.80
2023-02-11T08:00:03.529Z,7.84
2023-02-11T08:05:06.723Z,7.71
2023-02-11T08:10:09.461Z,7.52
2023-02-11T08:15:12.482Z,7.48
2023-02-11T08:20:17.183Z,7.65
2023-02-11T08:25:22.952Z,7.81
2023-02-11T08:30:27.656Z,8.09
2023-02-11T08:35:31.060Z,8.20
2023-02-11T08:40:35.696Z,8.34
2023-02-11T08:45:38.333Z,8.50
2023-02-11T08:50:40.943Z,8.52
2023-02-11T08:55:51.930Z,8.45
2023-02-11T09:00:54.883Z,8.55
2023-02-11T09:05:58.652Z,8.48
2023-02-11T09:11:01.961Z,8.58
2023-02-11T09:16:05.639Z,8.72
2023-02-11T09:21:09.580Z,8.80
2023-02-11T09:26:44.534Z,8.72
2023-02-11T09:31:47.318Z,8.72
2023-02-11T09:36:49.992Z,8.73
2023-02-11T09:41:59.404Z,8.79
2023-02-11T09:47:30.958Z,8.82
2023-02-11T09:52:38.510Z,9.06
2023-02-11T09:57:41.096Z,9.03
2023-02-11T10:03:00.694Z,9.19
2023-02-11T10:08:17.046Z,9.11
2023-02-11T10:13:42.562Z,9.15
2023-02-11T10:19:05.225Z,9.15
2023-02-11T10:24:14.092Z,9.14
2023-02-11T10:29:37.928Z,9.19
2023-02-11T10:34:42.278Z,9.08
2023-02-11T10:39:44.963Z,9.31
2023-02-11T10:45:02.613Z,9.30
2023-02-11T10:50:26.206Z,9.36
2023-02-11T10:55:30.162Z,9.53
2023-02-11T11:00:40.379Z,9.66
2023-02-11T11:05:52.367Z,9.74
2023-02-11T11:11:08.169Z,9.66
2023-02-11T11:16:13.970Z,9.64
2023-02-11T11:21:19.424Z,9.65
2023-02-11T11:26:49.680Z,9.91
2023-02-11T11:32:00.773Z,9.76
2023-02-11T11:37:10.904Z,9.83
2023-02-11T11:42:31.770Z,9.96
2023-02-11T11:47:56.150Z,10.16
2023-02-11T11:53:28.562Z,10.04
2023-02-11T11:58:34.092Z,10.01
2023-02-11T12:03:48.864Z,9.93
2023-02-11T12:09:12.314Z,10.04
2023-02-11T12:14:36.112Z,10.09
2023-02-11T12:19:41.380Z,10.24
2023-02-11T12:25:18.746Z,10.36
2023-02-11T12:30:37.897Z,10.45
2023-02-11T12:36:12.562Z,10.56
2023-02-11T12:41:48.086Z,10.63
2023-02-11T12:47:11.009Z,10.78
2023-02-11T12:52:20.028Z,10.86
2023-02-11T12:57:26.541Z,10.83
2023-02-11T13:02:56.961Z,9.05
2023-02-11T13:08:15.931Z,8.12
2023-02-11T13:13:25.659Z,9.41
2023-02-11T13:18:51.318Z,9.95
2023-02-11T13:24:09.801Z,10.20
2023-02-11T13:29:15.149Z,10.36
2023-02-11T13:34:43.292Z,10.44
2023-02-11T13:40:01.940Z,10.63
2023-02-11T13:45:20.999Z,10.73
2023-02-11T13:50:26.092Z,10.90
2023-02-11T13:55:30.127Z,10.96
2023-02-11T14:00:36.152Z,11.04
2023-02-11T14:06:31.340Z,11.17
2023-02-11T14:11:34.457Z,11.21
2023-02-11T14:17:09.895Z,11.32
2023-02-11T14:22:17.235Z,11.45
2023-02-11T14:27:42.182Z,11.56
2023-02-11T14:33:16.684Z,11.60
2023-02-11T14:38:35.747Z,11.63
2023-02-11T14:43:46.898Z,11.58
2023-02-11T14:48:53.857Z,11.55
2023-02-11T14:54:02.749Z,11.63
2023-02-11T14:59:17.542Z,11.71
2023-02-11T15:04:24.580Z,11.73
2023-02-11T15:09:37.293Z,11.70
2023-02-11T15:14:45.604Z,11.64
2023-02-11T15:19:55.081Z,11.61
2023-02-11T15:25:00.959Z,11.67
2023-02-11T15:30:24.761Z,11.70
2023-02-11T15:35:35.130Z,11.59
2023-02-11T15:40:37.859Z,11.54
2023-02-11T15:46:01.733Z,11.55
2023-02-11T15:51:25.292Z,11.55
2023-02-11T15:56:45.493Z,11.64
2023-02-11T16:01:49.067Z,11.62
2023-02-11T16:06:53.091Z,11.66
2023-02-11T16:11:58.876Z,11.71
2023-02-11T16:17:06.619Z,11.78
2023-02-11T16:22:15.332Z,11.87
2023-02-11T16:27:25.411Z,11.91
2023-02-11T16:32:29.711Z,11.83
2023-02-11T16:37:32.461Z,11.76
2023-02-11T16:42:35.177Z,11.50
2023-02-11T16:47:40.897Z,11.23
2023-02-11T16:52:43.573Z,11.34
2023-02-11T16:57:46.306Z,11.44
2023-02-11T17:02:49.060Z,11.48
2023-02-11T17:07:52.418Z,11.50
2023-02-11T17:12:55.297Z,11.46
2023-02-11T17:17:58.547Z,11.38
2023-02-11T17:23:01.131Z,11.41
2023-02-11T17:28:05.390Z,11.36
2023-02-11T17:33:09.497Z,11.34
2023-02-11T17:38:12.535Z,11.00
2023-02-11T17:43:15.799Z,10.87
2023-02-11T17:48:18.424Z,10.72
2023-02-11T17:53:21.070Z,10.65
2023-02-11T17:58:23.840Z,10.56
2023-02-11T18:03:26.507Z,10.29
2023-02-11T18:08:30.058Z,10.16
2023-02-11T18:13:33.062Z,10.11
2023-02-11T18:18:35.819Z,10.04
2023-02-11T18:23:38.532Z,9.92
2023-02-11T18:28:45.271Z,8.56
2023-02-11T18:33:48.949Z,6.68
2023-02-11T18:38:53.660Z,6.96
2023-02-11T18:43:59.595Z,8.00
2023-02-11T18:49:02.325Z,8.22
2023-02-11T18:54:05.069Z,8.42
2023-02-11T18:59:13.933Z,8.84
2023-02-11T19:04:19.911Z,7.86
2023-02-11T19:09:22.949Z,6.24
2023-02-11T19:14:31.415Z,6.01
2023-02-11T19:19:36.403Z,7.29
2023-02-11T19:24:40.147Z,8.06
2023-02-11T19:29:43.045Z,8.46
2023-02-11T19:34:46.831Z,7.86
2023-02-11T19:39:49.488Z,5.88
2023-02-11T19:44:52.060Z,4.94
2023-02-11T19:49:55.691Z,6.11
2023-02-11T19:54:59.376Z,6.98
2023-02-11T20:00:02.104Z,7.53
2023-02-11T20:05:05.081Z,7.95
2023-02-11T20:10:08.540Z,7.33
2023-02-11T20:15:11.339Z,5.48
2023-02-11T20:20:14.017Z,5.01
2023-02-11T20:25:16.684Z,6.45
2023-02-11T20:30:19.415Z,7.27
2023-02-11T20:35:22.431Z,7.73
2023-02-11T20:40:27.445Z,7.45
2023-02-11T20:45:30.181Z,5.57
2023-02-11T20:50:34.574Z,5.74
2023-02-11T20:55:38.681Z,6.75
2023-02-11T21:00:41.393Z,7.35
2023-02-11T21:05:44.035Z,7.65
2023-02-11T21:10:48.866Z,7.09
2023-02-11T21:15:55.816Z,5.33
2023-02-11T21:20:59.631Z,4.51
2023-02-11T21:26:02.459Z,5.81
2023-02-11T21:31:06.013Z,6.89
2023-02-11T21:36:10.508Z,7.56
2023-02-11T21:41:13.116Z,7.38
2023-02-11T21:46:16.989Z,5.78
2023-02-11T21:51:23.892Z,4.73
2023-02-11T21:56:28.182Z,4.02
2023-02-11T22:01:35.058Z,4.41
2023-02-11T22:06:37.858Z,6.14
2023-02-11T22:11:40.768Z,7.07
2023-02-11T22:16:47.600Z,7.63
2023-02-11T22:21:50.242Z,7.88
2023-02-11T22:26:53.622Z,7.43
2023-02-11T22:31:56.260Z,5.70
2023-02-11T22:37:00.061Z,4.61
2023-02-11T22:42:02.789Z,4.52
2023-02-11T22:47:05.504Z,5.99
2023-02-11T22:52:08.237Z,6.98
2023-02-11T22:57:10.809Z,7.39
2023-02-11T23:02:13.555Z,7.74
2023-02-11T23:07:16.373Z,7.11
2023-02-11T23:12:19.045Z,5.21
2023-02-11T23:17:24.310Z,4.09
2023-02-11T23:22:26.969Z,4.10
2023-02-11T23:27:29.820Z,5.72
2023-02-11T23:32:32.672Z,6.81
2023-02-11T23:37:35.599Z,6.71
2023-02-11T23:42:38.600Z,5.08
2023-02-11T23:47:42.325Z,4.05
2023-02-11T23:52:45.066Z,3.98
2023-02-11T23:57:47.758Z,5.79
